Sarah Reed — WDC3151 — position and weather

sailwx.info

Track history (hours):
 
Tides and Currents Weather Stations Pressure Air Temp Water Temp Dewpoint Dewpoint Depression Visibility Wind Speed Wind Dir Waves Ship Positions

Sarah Reed

Owner: THE DUTRA GROUP, SAN RAFAEL, CA. More information available from US FCC via Universal Licensing System.

Last reported at 2018-Jun-22 10:36 UTC. Time now 2018-Jun-23 19:13 UTC.
Position N 38°04' W 121°47'.

Length 19 m; draft 3.3 m.

Type: Towing. MMSI: 367003250.

Date/timePositionNaut miles runAvg speedWind from/ knotsBaromVisibWave heightAir tempDewpointWater temp
2018-Jun-22 10:36N 38°04' W 121°47'1 6.4
2018-Jun-22 10:30N 38°04' W 121°48'3 6.5
2018-Jun-22 10:00N 38°04' W 121°52'3 6.3
2018-Jun-22 09:30N 38°03' W 121°56'2 3.4
2018-Jun-22 09:00N 38°04' W 121°58'4 0.3
2018-Jun-21 16:56N 38°05' W 121°53'0 1.0
2018-Jun-21 16:26N 38°05' W 121°53'2 2.6
2018-Jun-21 15:52N 38°04' W 121°51'2 5.1
2018-Jun-21 15:30N 38°06' W 121°53'0 0.0
2018-Jun-21 15:00N 38°06' W 121°53'1 0.2
2018-Jun-21 10:43N 38°05' W 121°53'2 2.9
2018-Jun-21 09:55N 38°04' W 121°50'2 0.1
2018-Jun-20 05:21N 38°05' W 121°53'1 1.0
2018-Jun-20 04:46N 38°05' W 121°53'13 0.4
2018-Jun-18 22:04N 38°02' W 122°09'2 8.0
2018-Jun-18 21:51N 38°03' W 122°11'3 7.5
2018-Jun-18 21:30N 38°04' W 122°14'4 7.2
2018-Jun-18 21:00N 38°03' W 122°19'4 7.5
2018-Jun-18 20:29N 38°01' W 122°23'4 8.3
2018-Jun-18 20:00N 37°58' W 122°26'4 7.3
2018-Jun-18 19:30N 37°55' W 122°24'2 3.2
2018-Jun-18 19:00N 37°54' W 122°22'0 0.0
2018-Jun-18 18:30N 37°54' W 122°22'0 0.0
2018-Jun-16 18:15N 37°54' W 122°22'0 0.3
2018-Jun-16 18:00N 37°54' W 122°22'2 4.7
2018-Jun-16 17:30N 37°53' W 122°24'3 6.2
2018-Jun-16 17:00N 37°50' W 122°22'2 4.0
2018-Jun-16 16:30N 37°49' W 122°20'1 2.4
2018-Jun-16 16:00N 37°49' W 122°18'0 0.0
2018-Jun-16 10:08N 37°49' W 122°18'0 0.0
2018-Jun-16 10:00N 37°49' W 122°18'0 0.0
2018-Jun-16 09:30N 37°49' W 122°18'0 0.0
2018-Jun-16 08:57N 37°49' W 122°18'0 0.0
2018-Jun-16 08:30N 37°49' W 122°18'0 0.0
2018-Jun-16 08:00N 37°49' W 122°18'0 0.0
2018-Jun-16 07:30N 37°49' W 122°18'0 0.0
2018-Jun-16 07:00N 37°49' W 122°18'0 0.7
2018-Jun-16 06:30N 37°49' W 122°19'0 0.0
2018-Jun-16 06:00N 37°49' W 122°19'0 0.6
2018-Jun-16 05:30N 37°49' W 122°19'0 0.1
2018-Jun-16 05:00N 37°49' W 122°19'0 0.2
2018-Jun-16 04:30N 37°49' W 122°19'1 1.9
2018-Jun-16 04:00N 37°49' W 122°20'2 3.3
2018-Jun-16 03:30N 37°50' W 122°21'0 0.4
2018-Jun-16 03:00N 37°50' W 122°21'1 2.5
2018-Jun-16 02:30N 37°51' W 122°22'2 4.2
2018-Jun-16 02:00N 37°52' W 122°24'3 5.9
2018-Jun-16 01:30N 37°55' W 122°26'4 6.8
2018-Jun-16 00:59N 37°58' W 122°26'3 6.8
2018-Jun-16 00:30N 38°01' W 122°26'4 6.4
2018-Jun-15 23:55N 38°05' W 122°26'3 5.6
2018-Jun-15 23:24N 38°07' W 122°29'2 4.6
2018-Jun-15 22:59N 38°08' W 122°31'2 4.1
2018-Jun-15 22:29N 38°10' W 122°32'2 4.5
2018-Jun-15 22:00N 38°12' W 122°33'2 4.4
2018-Jun-15 21:30N 38°13' W 122°36'1 1.5
2018-Jun-15 21:00N 38°13' W 122°36'0 0.0
2018-Jun-15 20:30N 38°13' W 122°36'0 0.0
2018-Jun-15 20:00N 38°13' W 122°36'0 0.0
2018-Jun-15 08:34N 38°13' W 122°36'0 0.4
2018-Jun-15 08:31N 38°13' W 122°36'1 2.8
2018-Jun-15 08:00N 38°13' W 122°35'2 3.5
2018-Jun-15 07:30N 38°12' W 122°33'2 4.0
2018-Jun-15 07:00N 38°10' W 122°32'2 4.4
2018-Jun-15 06:30N 38°08' W 122°31'2 3.9
2018-Jun-15 05:54N 38°07' W 122°28'2 4.7
2018-Jun-15 05:27N 38°05' W 122°26'2 4.6
2018-Jun-15 04:59N 38°03' W 122°26'3 5.3
2018-Jun-15 04:30N 38°01' W 122°25'3 5.7
2018-Jun-15 04:00N 37°58' W 122°26'3 5.4
2018-Jun-15 03:30N 37°55' W 122°25'2 4.7
2018-Jun-15 03:00N 37°53' W 122°24'2 4.6
2018-Jun-15 02:30N 37°51' W 122°23'2 3.6
2018-Jun-15 01:59N 37°50' W 122°21'1 1.2
2018-Jun-15 01:30N 37°50' W 122°22'3 5.1
2018-Jun-15 01:00N 37°52' W 122°24'3 6.7
2018-Jun-15 00:30N 37°55' W 122°25'4 7.3
2018-Jun-15 00:00N 37°59' W 122°26'3 6.5
2018-Jun-14 23:30N 38°02' W 122°26'3 6.1
2018-Jun-14 23:00N 38°05' W 122°26'3 5.4
2018-Jun-14 22:28N 38°07' W 122°29'2 4.4
2018-Jun-14 21:57N 38°08' W 122°31'2 3.9
2018-Jun-14 21:29N 38°10' W 122°32'2 4.4
2018-Jun-14 21:00N 38°12' W 122°33'2 4.5
2018-Jun-14 20:30N 38°13' W 122°36'1 0.0
2018-Jun-14 07:34N 38°13' W 122°36'0 0.0
2018-Jun-14 07:30N 38°13' W 122°36'1 1.4
2018-Jun-14 07:01N 38°13' W 122°36'2 3.9
2018-Jun-14 06:30N 38°12' W 122°34'2 3.7
2018-Jun-14 06:01N 38°10' W 122°32'2 3.7
2018-Jun-14 05:29N 38°09' W 122°31'4 4.2
2018-Jun-14 04:35N 38°06' W 122°28'0 5.2
2018-Jun-14 04:30N 38°06' W 122°27'2 4.7
2018-Jun-14 04:01N 38°04' W 122°26'3 5.1
2018-Jun-14 03:30N 38°02' W 122°26'3 5.2
2018-Jun-14 03:00N 37°59' W 122°26'2 4.7
2018-Jun-14 02:30N 37°57' W 122°26'2 4.6
2018-Jun-14 02:01N 37°54' W 122°25'2 4.4
2018-Jun-14 01:30N 37°52' W 122°24'3 5.1
2018-Jun-14 01:00N 37°50' W 122°22'1 2.0
2018-Jun-14 00:31N 37°50' W 122°21'3 5.3
2018-Jun-14 00:00N 37°52' W 122°24'3 6.8
2018-Jun-13 23:31N 37°55' W 122°25'4 7.6
2018-Jun-13 22:57N 37°59' W 122°26'3 6.9
2018-Jun-13 22:31N 38°02' W 122°26'3 6.2
2018-Jun-13 22:00N 38°05' W 122°26'3 5.7
2018-Jun-13 21:26N 38°07' W 122°30'2 4.7
2018-Jun-13 21:00N 38°08' W 122°31'2 3.9
2018-Jun-13 20:31N 38°10' W 122°32'2 4.2
2018-Jun-13 20:00N 38°12' W 122°34'2 4.4
2018-Jun-13 19:30N 38°13' W 122°36'0 0.8
2018-Jun-13 19:00N 38°13' W 122°36'0 0.0
2018-Jun-13 18:30N 38°13' W 122°36'0 0.0
2018-Jun-13 18:01N 38°13' W 122°36'0 0.0
2018-Jun-13 17:30N 38°13' W 122°36'0 0.0
2018-Jun-13 17:00N 38°13' W 122°36'0 0.0
2018-Jun-13 16:30N 38°13' W 122°36'0 0.0
2018-Jun-13 16:00N 38°13' W 122°36'0 0.0
2018-Jun-13 15:30N 38°13' W 122°36'0 0.0
2018-Jun-13 15:00N 38°13' W 122°36'0 0.0
2018-Jun-13 14:31N 38°13' W 122°36'0 0.0
2018-Jun-13 07:09N 38°13' W 122°36'0 0.0
2018-Jun-13 07:00N 38°13' W 122°36'1 1.5
2018-Jun-13 06:30N 38°13' W 122°36'2 3.8
2018-Jun-13 06:00N 38°12' W 122°34'2 3.5
2018-Jun-13 05:31N 38°11' W 122°32'2 3.5
2018-Jun-13 05:00N 38°09' W 122°32'3 5.0
2018-Jun-13 04:30N 38°07' W 122°30'2 4.2
2018-Jun-13 04:00N 38°06' W 122°27'2 4.7
2018-Jun-13 03:30N 38°04' W 122°26'3 5.1
2018-Jun-13 03:00N 38°02' W 122°26'3 5.4
2018-Jun-13 02:30N 37°59' W 122°26'3 5.3
2018-Jun-13 02:00N 37°56' W 122°26'3 5.0
2018-Jun-13 01:30N 37°54' W 122°25'2 4.6
2018-Jun-13 01:00N 37°52' W 122°24'2 4.3
2018-Jun-13 00:30N 37°50' W 122°22'1 1.5
2018-Jun-13 00:00N 37°50' W 122°21'2 4.4
2018-Jun-12 23:30N 37°51' W 122°23'3 6.4
2018-Jun-12 23:00N 37°54' W 122°25'4 7.2
2018-Jun-12 22:30N 37°58' W 122°26'3 7.0
2018-Jun-12 22:00N 38°01' W 122°26'3 6.4
2018-Jun-12 21:29N 38°05' W 122°26'3 5.8
2018-Jun-12 20:57N 38°07' W 122°29'2 4.3
2018-Jun-12 20:30N 38°08' W 122°31'2 4.2
2018-Jun-12 20:00N 38°10' W 122°33'2 4.2
2018-Jun-12 19:30N 38°12' W 122°33'2 4.0
2018-Jun-12 19:00N 38°13' W 122°35'1 2.7
2018-Jun-12 18:30N 38°13' W 122°36'0 0.0
2018-Jun-12 18:00N 38°13' W 122°36'0 0.0
2018-Jun-12 17:30N 38°13' W 122°36'0 0.0
2018-Jun-12 17:00N 38°13' W 122°36'0 0.0
2018-Jun-12 16:30N 38°13' W 122°36'  
Track history (hours):
 
Tides and Currents Weather Stations Pressure Air Temp Water Temp Dewpoint Dewpoint Depression Visibility Wind Speed Wind Dir Waves Ship Positions

Sarah Reed

Owner: THE DUTRA GROUP, SAN RAFAEL, CA. More information available from US FCC via Universal Licensing System.

Last reported at 2018-Jun-22 10:36 UTC. Time now 2018-Jun-23 19:13 UTC.
Position N 38°04' W 121°47'.

Length 19 m; draft 3.3 m.

Type: Towing. MMSI: 367003250.

Date/timePositionNaut miles runAvg speedWind from/ knotsBaromVisibWave heightAir tempDewpointWater temp
2018-Jun-22 10:36N 38°04' W 121°47'1 6.4
2018-Jun-22 10:30N 38°04' W 121°48'3 6.5
2018-Jun-22 10:00N 38°04' W 121°52'3 6.3
2018-Jun-22 09:30N 38°03' W 121°56'2 3.4
2018-Jun-22 09:00N 38°04' W 121°58'4 0.3
2018-Jun-21 16:56N 38°05' W 121°53'0 1.0
2018-Jun-21 16:26N 38°05' W 121°53'2 2.6
2018-Jun-21 15:52N 38°04' W 121°51'2 5.1
2018-Jun-21 15:30N 38°06' W 121°53'0 0.0
2018-Jun-21 15:00N 38°06' W 121°53'1 0.2
2018-Jun-21 10:43N 38°05' W 121°53'2 2.9
2018-Jun-21 09:55N 38°04' W 121°50'2 0.1
2018-Jun-20 05:21N 38°05' W 121°53'1 1.0
2018-Jun-20 04:46N 38°05' W 121°53'13 0.4
2018-Jun-18 22:04N 38°02' W 122°09'2 8.0
2018-Jun-18 21:51N 38°03' W 122°11'3 7.5
2018-Jun-18 21:30N 38°04' W 122°14'4 7.2
2018-Jun-18 21:00N 38°03' W 122°19'4 7.5
2018-Jun-18 20:29N 38°01' W 122°23'4 8.3
2018-Jun-18 20:00N 37°58' W 122°26'4 7.3
2018-Jun-18 19:30N 37°55' W 122°24'2 3.2
2018-Jun-18 19:00N 37°54' W 122°22'0 0.0
2018-Jun-18 18:30N 37°54' W 122°22'0 0.0
2018-Jun-16 18:15N 37°54' W 122°22'0 0.3
2018-Jun-16 18:00N 37°54' W 122°22'2 4.7
2018-Jun-16 17:30N 37°53' W 122°24'3 6.2
2018-Jun-16 17:00N 37°50' W 122°22'2 4.0
2018-Jun-16 16:30N 37°49' W 122°20'1 2.4
2018-Jun-16 16:00N 37°49' W 122°18'0 0.0
2018-Jun-16 10:08N 37°49' W 122°18'0 0.0
2018-Jun-16 10:00N 37°49' W 122°18'0 0.0
2018-Jun-16 09:30N 37°49' W 122°18'0 0.0
2018-Jun-16 08:57N 37°49' W 122°18'0 0.0
2018-Jun-16 08:30N 37°49' W 122°18'0 0.0
2018-Jun-16 08:00N 37°49' W 122°18'0 0.0
2018-Jun-16 07:30N 37°49' W 122°18'0 0.0
2018-Jun-16 07:00N 37°49' W 122°18'0 0.7
2018-Jun-16 06:30N 37°49' W 122°19'0 0.0
2018-Jun-16 06:00N 37°49' W 122°19'0 0.6
2018-Jun-16 05:30N 37°49' W 122°19'0 0.1
2018-Jun-16 05:00N 37°49' W 122°19'0 0.2
2018-Jun-16 04:30N 37°49' W 122°19'1 1.9
2018-Jun-16 04:00N 37°49' W 122°20'2 3.3
2018-Jun-16 03:30N 37°50' W 122°21'0 0.4
2018-Jun-16 03:00N 37°50' W 122°21'1 2.5
2018-Jun-16 02:30N 37°51' W 122°22'2 4.2
2018-Jun-16 02:00N 37°52' W 122°24'3 5.9
2018-Jun-16 01:30N 37°55' W 122°26'4 6.8
2018-Jun-16 00:59N 37°58' W 122°26'3 6.8
2018-Jun-16 00:30N 38°01' W 122°26'4 6.4
2018-Jun-15 23:55N 38°05' W 122°26'3 5.6
2018-Jun-15 23:24N 38°07' W 122°29'2 4.6
2018-Jun-15 22:59N 38°08' W 122°31'2 4.1
2018-Jun-15 22:29N 38°10' W 122°32'2 4.5
2018-Jun-15 22:00N 38°12' W 122°33'2 4.4
2018-Jun-15 21:30N 38°13' W 122°36'1 1.5
2018-Jun-15 21:00N 38°13' W 122°36'0 0.0
2018-Jun-15 20:30N 38°13' W 122°36'0 0.0
2018-Jun-15 20:00N 38°13' W 122°36'0 0.0
2018-Jun-15 08:34N 38°13' W 122°36'0 0.4
2018-Jun-15 08:31N 38°13' W 122°36'1 2.8
2018-Jun-15 08:00N 38°13' W 122°35'2 3.5
2018-Jun-15 07:30N 38°12' W 122°33'2 4.0
2018-Jun-15 07:00N 38°10' W 122°32'2 4.4
2018-Jun-15 06:30N 38°08' W 122°31'2 3.9
2018-Jun-15 05:54N 38°07' W 122°28'2 4.7
2018-Jun-15 05:27N 38°05' W 122°26'2 4.6
2018-Jun-15 04:59N 38°03' W 122°26'3 5.3
2018-Jun-15 04:30N 38°01' W 122°25'3 5.7
2018-Jun-15 04:00N 37°58' W 122°26'3 5.4
2018-Jun-15 03:30N 37°55' W 122°25'2 4.7
2018-Jun-15 03:00N 37°53' W 122°24'2 4.6
2018-Jun-15 02:30N 37°51' W 122°23'2 3.6
2018-Jun-15 01:59N 37°50' W 122°21'1 1.2
2018-Jun-15 01:30N 37°50' W 122°22'3 5.1
2018-Jun-15 01:00N 37°52' W 122°24'3 6.7
2018-Jun-15 00:30N 37°55' W 122°25'4 7.3
2018-Jun-15 00:00N 37°59' W 122°26'3 6.5
2018-Jun-14 23:30N 38°02' W 122°26'3 6.1
2018-Jun-14 23:00N 38°05' W 122°26'3 5.4
2018-Jun-14 22:28N 38°07' W 122°29'2 4.4
2018-Jun-14 21:57N 38°08' W 122°31'2 3.9
2018-Jun-14 21:29N 38°10' W 122°32'2 4.4
2018-Jun-14 21:00N 38°12' W 122°33'2 4.5
2018-Jun-14 20:30N 38°13' W 122°36'1 0.0
2018-Jun-14 07:34N 38°13' W 122°36'0 0.0
2018-Jun-14 07:30N 38°13' W 122°36'1 1.4
2018-Jun-14 07:01N 38°13' W 122°36'2 3.9
2018-Jun-14 06:30N 38°12' W 122°34'2 3.7
2018-Jun-14 06:01N 38°10' W 122°32'2 3.7
2018-Jun-14 05:29N 38°09' W 122°31'4 4.2
2018-Jun-14 04:35N 38°06' W 122°28'0 5.2
2018-Jun-14 04:30N 38°06' W 122°27'2 4.7
2018-Jun-14 04:01N 38°04' W 122°26'3 5.1
2018-Jun-14 03:30N 38°02' W 122°26'3 5.2
2018-Jun-14 03:00N 37°59' W 122°26'2 4.7
2018-Jun-14 02:30N 37°57' W 122°26'2 4.6
2018-Jun-14 02:01N 37°54' W 122°25'2 4.4
2018-Jun-14 01:30N 37°52' W 122°24'3 5.1
2018-Jun-14 01:00N 37°50' W 122°22'1 2.0
2018-Jun-14 00:31N 37°50' W 122°21'3 5.3
2018-Jun-14 00:00N 37°52' W 122°24'3 6.8
2018-Jun-13 23:31N 37°55' W 122°25'4 7.6
2018-Jun-13 22:57N 37°59' W 122°26'3 6.9
2018-Jun-13 22:31N 38°02' W 122°26'3 6.2
2018-Jun-13 22:00N 38°05' W 122°26'3 5.7
2018-Jun-13 21:26N 38°07' W 122°30'2 4.7
2018-Jun-13 21:00N 38°08' W 122°31'2 3.9
2018-Jun-13 20:31N 38°10' W 122°32'2 4.2
2018-Jun-13 20:00N 38°12' W 122°34'2 4.4
2018-Jun-13 19:30N 38°13' W 122°36'0 0.8
2018-Jun-13 19:00N 38°13' W 122°36'0 0.0
2018-Jun-13 18:30N 38°13' W 122°36'0 0.0
2018-Jun-13 18:01N 38°13' W 122°36'0 0.0
2018-Jun-13 17:30N 38°13' W 122°36'0 0.0
2018-Jun-13 17:00N 38°13' W 122°36'0 0.0
2018-Jun-13 16:30N 38°13' W 122°36'0 0.0
2018-Jun-13 16:00N 38°13' W 122°36'0 0.0
2018-Jun-13 15:30N 38°13' W 122°36'0 0.0
2018-Jun-13 15:00N 38°13' W 122°36'0 0.0
2018-Jun-13 14:31N 38°13' W 122°36'0 0.0
2018-Jun-13 07:09N 38°13' W 122°36'0 0.0
2018-Jun-13 07:00N 38°13' W 122°36'1 1.5
2018-Jun-13 06:30N 38°13' W 122°36'2 3.8
2018-Jun-13 06:00N 38°12' W 122°34'2 3.5
2018-Jun-13 05:31N 38°11' W 122°32'2 3.5
2018-Jun-13 05:00N 38°09' W 122°32'3 5.0
2018-Jun-13 04:30N 38°07' W 122°30'2 4.2
2018-Jun-13 04:00N 38°06' W 122°27'2 4.7
2018-Jun-13 03:30N 38°04' W 122°26'3 5.1
2018-Jun-13 03:00N 38°02' W 122°26'3 5.4
2018-Jun-13 02:30N 37°59' W 122°26'3 5.3
2018-Jun-13 02:00N 37°56' W 122°26'3 5.0
2018-Jun-13 01:30N 37°54' W 122°25'2 4.6
2018-Jun-13 01:00N 37°52' W 122°24'2 4.3
2018-Jun-13 00:30N 37°50' W 122°22'1 1.5
2018-Jun-13 00:00N 37°50' W 122°21'2 4.4
2018-Jun-12 23:30N 37°51' W 122°23'3 6.4
2018-Jun-12 23:00N 37°54' W 122°25'4 7.2
2018-Jun-12 22:30N 37°58' W 122°26'3 7.0
2018-Jun-12 22:00N 38°01' W 122°26'3 6.4
2018-Jun-12 21:29N 38°05' W 122°26'3 5.8
2018-Jun-12 20:57N 38°07' W 122°29'2 4.3
2018-Jun-12 20:30N 38°08' W 122°31'2 4.2
2018-Jun-12 20:00N 38°10' W 122°33'2 4.2
2018-Jun-12 19:30N 38°12' W 122°33'2 4.0
2018-Jun-12 19:00N 38°13' W 122°35'1 2.7
2018-Jun-12 18:30N 38°13' W 122°36'0 0.0
2018-Jun-12 18:00N 38°13' W 122°36'0 0.0
2018-Jun-12 17:30N 38°13' W 122°36'0 0.0
2018-Jun-12 17:00N 38°13' W 122°36'0 0.0
2018-Jun-12 16:30N 38°13' W 122°36'  

Dump ship's entire track history